createdAt,value
2023-05-10T00:00:38.809Z,13.34
2023-05-10T00:03:47.111Z,13.32
2023-05-10T00:07:09.053Z,13.24
2023-05-10T00:10:11.530Z,13.11
2023-05-10T00:13:26.284Z,13.10
2023-05-10T00:16:35.112Z,12.99
2023-05-10T00:19:43.728Z,13.00
2023-05-10T00:22:52.081Z,12.87
2023-05-10T00:26:00.644Z,12.78
2023-05-10T00:29:09.085Z,12.73
2023-05-10T00:32:17.757Z,12.73
2023-05-10T00:35:26.073Z,12.63
2023-05-10T00:38:35.283Z,12.62
2023-05-10T00:41:44.081Z,12.56
2023-05-10T00:44:59.067Z,12.51
2023-05-10T00:48:10.091Z,12.39
2023-05-10T00:51:25.079Z,12.32
2023-05-10T00:54:27.040Z,12.27
2023-05-10T00:57:42.092Z,12.29
2023-05-10T01:00:53.108Z,12.28
2023-05-10T01:04:01.890Z,12.29
2023-05-10T01:07:24.109Z,12.28
2023-05-10T01:10:32.087Z,12.24
2023-05-10T01:13:43.035Z,12.25
2023-05-10T01:17:00.109Z,12.34
2023-05-10T01:20:11.307Z,12.35
2023-05-10T01:23:33.090Z,12.44
2023-05-10T01:27:33.118Z,12.47
2023-05-10T01:30:37.660Z,12.50
2023-05-10T01:34:14.142Z,12.56
2023-05-10T01:37:22.618Z,12.58
2023-05-10T01:40:43.092Z,12.46
2023-05-10T01:44:12.860Z,12.59
2023-05-10T01:47:40.112Z,12.58
2023-05-10T01:50:50.371Z,12.63
2023-05-10T01:54:05.078Z,12.61
2023-05-10T01:57:15.401Z,12.70
2023-05-10T02:00:32.132Z,12.76
2023-05-10T02:03:43.881Z,12.79
2023-05-10T02:07:01.124Z,12.84
2023-05-10T02:10:12.141Z,12.84
2023-05-10T02:13:28.118Z,12.88
2023-05-10T02:16:39.106Z,12.85
2023-05-10T02:19:50.093Z,12.88
2023-05-10T02:23:05.081Z,12.93
2023-05-10T02:26:22.095Z,12.94
2023-05-10T02:29:32.356Z,12.95
2023-05-10T02:32:48.108Z,12.97
2023-05-10T02:36:04.089Z,12.87
2023-05-10T02:39:14.260Z,12.91
2023-05-10T02:42:27.116Z,12.86
2023-05-10T02:45:37.486Z,12.88
2023-05-10T02:48:46.085Z,12.89
2023-05-10T02:52:01.010Z,12.86
2023-05-10T02:55:19.098Z,12.86
2023-05-10T02:58:21.051Z,12.84
2023-05-10T03:01:37.125Z,12.78
2023-05-10T03:04:45.691Z,12.75
2023-05-10T03:08:01.087Z,12.70
2023-05-10T03:11:28.099Z,12.67
2023-05-10T03:15:01.101Z,12.61
2023-05-10T03:18:16.548Z,12.55
2023-05-10T03:21:28.079Z,12.45
2023-05-10T03:24:38.392Z,12.36
2023-05-10T03:27:54.089Z,12.36
2023-05-10T03:31:12.116Z,12.29
2023-05-10T03:34:20.109Z,12.31
2023-05-10T03:37:35.109Z,12.31
2023-05-10T03:40:43.615Z,12.24
2023-05-10T03:43:52.132Z,12.22
2023-05-10T03:47:00.731Z,12.18
2023-05-10T03:50:17.349Z,12.20
2023-05-10T03:53:26.108Z,12.20
2023-05-10T03:56:41.272Z,12.22
2023-05-10T03:59:50.103Z,12.24
2023-05-10T04:03:12.162Z,12.30
2023-05-10T04:06:27.132Z,12.38
2023-05-10T04:09:35.639Z,12.43
2023-05-10T04:12:44.187Z,12.47
2023-05-10T04:15:52.665Z,12.52
2023-05-10T04:19:07.116Z,12.49
2023-05-10T04:22:09.040Z,12.50
2023-05-10T04:25:24.104Z,12.45
2023-05-10T04:28:32.105Z,12.40
2023-05-10T04:31:47.108Z,12.37
2023-05-10T04:34:55.100Z,12.30
2023-05-10T04:38:10.101Z,12.27
2023-05-10T04:41:18.711Z,12.25
2023-05-10T04:44:27.118Z,12.28
2023-05-10T04:47:42.131Z,12.22
2023-05-10T04:50:57.110Z,12.35
2023-05-10T04:54:06.533Z,12.36
2023-05-10T04:57:15.665Z,12.41
2023-05-10T05:00:24.089Z,12.42
2023-05-10T05:03:32.718Z,12.42
2023-05-10T05:06:54.212Z,12.42
2023-05-10T05:10:09.113Z,12.56
2023-05-10T05:13:18.098Z,12.65
2023-05-10T05:16:33.139Z,12.60
2023-05-10T05:19:48.104Z,12.74
2023-05-10T05:22:56.693Z,12.86
2023-05-10T05:26:05.084Z,12.91
2023-05-10T05:29:20.094Z,13.07
2023-05-10T05:32:22.105Z,13.05
2023-05-10T05:35:37.103Z,13.04
2023-05-10T05:38:52.094Z,13.01
2023-05-10T05:41:53.932Z,12.96
2023-05-10T05:45:09.107Z,13.04
2023-05-10T05:48:17.694Z,13.19
2023-05-10T05:51:26.095Z,13.20
2023-05-10T05:54:41.116Z,13.08
2023-05-10T05:57:50.624Z,13.11
2023-05-10T06:01:05.353Z,13.12
2023-05-10T06:04:08.399Z,13.22
2023-05-10T06:07:32.209Z,13.28
2023-05-10T06:10:49.395Z,13.35
2023-05-10T06:13:51.753Z,13.56
2023-05-10T06:17:07.348Z,13.57
2023-05-10T06:20:10.610Z,13.58
2023-05-10T06:23:26.615Z,13.50
2023-05-10T06:26:36.366Z,13.58
2023-05-10T06:29:45.933Z,13.52
2023-05-10T06:33:02.166Z,13.66
2023-05-10T06:36:04.300Z,13.94
2023-05-10T06:39:19.118Z,14.09
2023-05-10T06:42:27.870Z,14.29
2023-05-10T06:45:36.219Z,14.27
2023-05-10T06:48:44.665Z,14.74
2023-05-10T06:51:59.220Z,15.14
2023-05-10T06:55:28.114Z,14.89
2023-05-10T06:58:45.472Z,15.12
2023-05-10T07:02:00.205Z,15.25
2023-05-10T07:05:16.286Z,15.38
2023-05-10T07:08:39.132Z,15.43
2023-05-10T07:11:47.626Z,15.48
2023-05-10T07:14:56.123Z,15.91
2023-05-10T07:18:23.665Z,16.30
2023-05-10T07:21:38.123Z,16.26
2023-05-10T07:24:40.094Z,15.89
2023-05-10T07:27:56.137Z,16.00
2023-05-10T07:30:58.345Z,16.48
2023-05-10T07:34:13.174Z,16.39
2023-05-10T07:37:21.839Z,16.22
2023-05-10T07:40:30.122Z,16.47
2023-05-10T07:43:45.097Z,16.61
2023-05-10T07:46:53.708Z,16.90
2023-05-10T07:50:08.108Z,17.19
2023-05-10T07:53:23.129Z,16.97
2023-05-10T07:56:29.880Z,17.10
2023-05-10T07:59:45.149Z,17.08
2023-05-10T08:03:00.274Z,17.01
2023-05-10T08:06:15.120Z,16.93
2023-05-10T08:09:30.105Z,17.45
2023-05-10T08:12:39.635Z,17.84
2023-05-10T08:15:50.044Z,18.33
2023-05-10T08:19:06.888Z,17.86
2023-05-10T08:22:24.367Z,18.10
2023-05-10T08:25:32.822Z,17.95
2023-05-10T08:28:43.484Z,18.64
2023-05-10T08:31:54.272Z,18.04
2023-05-10T08:35:04.350Z,17.76
2023-05-10T08:38:20.515Z,18.75
2023-05-10T08:41:37.524Z,18.69
2023-05-10T08:44:56.365Z,18.40
2023-05-10T08:48:07.599Z,18.18
2023-05-10T08:51:19.462Z,18.24
2023-05-10T08:54:34.150Z,18.94
2023-05-10T08:57:42.857Z,18.86
2023-05-10T09:00:58.202Z,19.06
2023-05-10T09:04:00.511Z,19.44
2023-05-10T09:07:15.133Z,19.37
2023-05-10T09:10:31.138Z,19.60
2023-05-10T09:13:40.054Z,19.30
2023-05-10T09:16:55.194Z,19.42
2023-05-10T09:20:05.257Z,19.01
2023-05-10T09:23:20.162Z,19.19
2023-05-10T09:26:25.318Z,20.06
2023-05-10T09:29:50.131Z,19.60
2023-05-10T09:33:07.138Z,19.65
2023-05-10T09:36:09.149Z,20.14
2023-05-10T09:39:24.137Z,18.51
2023-05-10T09:42:39.138Z,19.19
2023-05-10T09:45:42.357Z,19.44
2023-05-10T09:48:57.138Z,19.02
2023-05-10T09:52:04.834Z,18.79
2023-05-10T09:55:20.145Z,18.62
2023-05-10T09:58:35.125Z,18.76
2023-05-10T10:01:37.703Z,18.88
2023-05-10T10:04:52.189Z,19.53
2023-05-10T10:08:10.160Z,19.56
2023-05-10T10:11:18.883Z,19.57
2023-05-10T10:14:35.282Z,19.65
2023-05-10T10:17:38.320Z,19.48
2023-05-10T10:20:54.175Z,19.01
2023-05-10T10:24:02.170Z,18.93
2023-05-10T10:27:42.729Z,19.70
2023-05-10T10:31:00.204Z,20.17
2023-05-10T10:34:06.835Z,19.80
2023-05-10T10:37:21.654Z,20.02
2023-05-10T10:40:40.135Z,19.59
2023-05-10T10:43:49.113Z,19.62
2023-05-10T10:47:19.136Z,20.53
2023-05-10T10:50:27.848Z,20.49
2023-05-10T10:53:36.170Z,20.33
2023-05-10T10:56:45.860Z,19.80
2023-05-10T10:59:54.156Z,19.44
2023-05-10T11:03:13.173Z,19.36
2023-05-10T11:06:33.528Z,19.59
2023-05-10T11:09:48.137Z,19.68
2023-05-10T11:13:16.158Z,19.03
2023-05-10T11:16:26.518Z,19.11
2023-05-10T11:19:42.567Z,19.25
2023-05-10T11:22:59.159Z,19.37
2023-05-10T11:26:01.941Z,19.16
2023-05-10T11:29:17.143Z,19.33
2023-05-10T11:32:32.225Z,19.76
2023-05-10T11:35:43.335Z,19.93
2023-05-10T11:38:52.171Z,20.07
2023-05-10T11:42:07.168Z,19.95
2023-05-10T11:45:09.686Z,19.78
2023-05-10T11:48:26.905Z,19.39
2023-05-10T11:51:42.665Z,19.32
2023-05-10T11:54:56.561Z,19.39
2023-05-10T11:58:12.205Z,19.56
2023-05-10T12:01:21.736Z,19.37
2023-05-10T12:04:30.170Z,19.39
2023-05-10T12:07:45.451Z,19.59
2023-05-10T12:10:54.144Z,19.83
2023-05-10T12:14:06.058Z,19.82
2023-05-10T12:17:19.281Z,19.58
2023-05-10T12:20:39.128Z,19.59
2023-05-10T12:23:52.796Z,20.02
2023-05-10T12:30:35.027Z,19.78
2023-05-10T12:33:45.106Z,19.50
2023-05-10T12:37:01.134Z,19.18
2023-05-10T12:40:03.127Z,19.32
2023-05-10T12:43:18.124Z,19.52
2023-05-10T12:46:26.891Z,19.44
2023-05-10T12:49:42.127Z,19.33
2023-05-10T12:52:50.608Z,19.24
2023-05-10T12:55:59.157Z,19.87
2023-05-10T12:59:14.135Z,20.10
2023-05-10T13:02:16.585Z,19.97
2023-05-10T13:05:31.124Z,20.04
2023-05-10T13:08:39.773Z,20.20
2023-05-10T13:11:48.114Z,20.77
2023-05-10T13:15:10.367Z,20.90
2023-05-10T13:18:20.215Z,20.70
2023-05-10T13:21:29.266Z,20.43
2023-05-10T13:24:38.196Z,20.93
2023-05-10T13:27:53.138Z,20.87
2023-05-10T13:31:01.700Z,21.02
2023-05-10T13:34:11.147Z,21.55
2023-05-10T13:37:26.127Z,20.81
2023-05-10T13:40:42.279Z,20.47
2023-05-10T13:43:50.713Z,20.34
2023-05-10T13:47:05.122Z,20.60
2023-05-10T13:50:20.145Z,20.72
2023-05-10T13:53:35.259Z,20.98
2023-05-10T13:56:50.158Z,21.04
2023-05-10T13:59:59.142Z,20.42
2023-05-10T14:03:14.225Z,20.61
2023-05-10T14:06:29.375Z,20.95
2023-05-10T14:09:38.163Z,20.43
2023-05-10T14:12:46.784Z,20.65
2023-05-10T14:16:02.164Z,20.96
2023-05-10T14:19:10.222Z,20.44
2023-05-10T14:22:18.809Z,19.92
2023-05-10T14:25:27.130Z,19.70
2023-05-10T14:28:42.191Z,20.22
2023-05-10T14:32:01.363Z,20.25
2023-05-10T14:35:03.933Z,20.37
2023-05-10T14:38:19.145Z,20.17
2023-05-10T14:41:27.157Z,19.89
2023-05-10T14:44:42.142Z,19.75
2023-05-10T14:47:58.209Z,19.87
2023-05-10T14:51:07.164Z,19.84
2023-05-10T14:54:22.227Z,19.71
2023-05-10T14:57:37.196Z,19.44
2023-05-10T15:00:52.142Z,19.27
2023-05-10T15:04:01.149Z,19.45
2023-05-10T15:07:16.463Z,19.39
2023-05-10T15:10:33.164Z,19.48
2023-05-10T15:13:42.743Z,19.78
2023-05-10T15:16:57.160Z,20.19
2023-05-10T15:20:13.152Z,19.89
2023-05-10T15:23:28.158Z,19.92
2023-05-10T15:26:36.239Z,19.88
2023-05-10T15:29:44.778Z,19.85
2023-05-10T15:32:59.220Z,19.64
2023-05-10T15:36:14.146Z,19.61
2023-05-10T15:39:15.966Z,19.46
2023-05-10T15:42:31.183Z,19.37
2023-05-10T15:45:46.143Z,19.44
2023-05-10T15:48:54.193Z,19.41
2023-05-10T15:52:09.178Z,19.33
2023-05-10T15:55:17.990Z,19.14
2023-05-10T15:58:26.201Z,19.04
2023-05-10T16:01:35.014Z,19.20
2023-05-10T16:04:50.211Z,19.18
2023-05-10T16:08:12.208Z,19.18
2023-05-10T16:11:20.898Z,19.42
2023-05-10T16:14:29.225Z,19.41
2023-05-10T16:17:37.922Z,19.47
2023-05-10T16:20:46.198Z,19.43
2023-05-10T16:24:02.213Z,19.48
2023-05-10T16:27:17.221Z,19.30
2023-05-10T16:30:25.862Z,19.29
2023-05-10T16:33:34.219Z,19.25
2023-05-10T16:36:49.233Z,18.99
2023-05-10T16:39:51.180Z,18.92
2023-05-10T16:43:06.203Z,18.90
2023-05-10T16:46:18.258Z,18.74
2023-05-10T16:49:26.786Z,18.64
2023-05-10T16:52:43.206Z,18.53
2023-05-10T16:55:51.754Z,18.61
2023-05-10T16:59:00.227Z,18.69
2023-05-10T17:02:15.194Z,18.66
2023-05-10T17:05:17.342Z,18.57
2023-05-10T17:08:39.207Z,18.50
2023-05-10T17:11:47.720Z,18.39
2023-05-10T17:14:56.205Z,18.27
2023-05-10T17:18:05.327Z,18.19
2023-05-10T17:21:16.251Z,18.19
2023-05-10T17:24:24.792Z,18.15
2023-05-10T17:27:34.226Z,18.10
2023-05-10T17:30:42.826Z,18.07
2023-05-10T17:33:51.220Z,18.05
2023-05-10T17:36:59.805Z,17.99
2023-05-10T17:40:08.221Z,17.94
2023-05-10T17:43:23.211Z,17.88
2023-05-10T17:46:25.330Z,17.80
2023-05-10T17:49:40.219Z,17.74
2023-05-10T17:52:48.919Z,17.70
2023-05-10T17:55:58.205Z,17.60
2023-05-10T17:59:13.233Z,17.58
2023-05-10T18:02:28.244Z,17.47
2023-05-10T18:05:30.226Z,17.48
2023-05-10T18:08:52.213Z,17.41
2023-05-10T18:12:10.227Z,17.42
2023-05-10T18:15:12.386Z,17.36
2023-05-10T18:18:28.259Z,17.33
2023-05-10T18:21:44.240Z,17.27
2023-05-10T18:24:46.510Z,17.15
2023-05-10T18:28:01.222Z,17.13
2023-05-10T18:31:10.710Z,17.10
2023-05-10T18:34:20.226Z,17.07
2023-05-10T18:37:29.574Z,17.00
2023-05-10T18:40:46.275Z,16.95
2023-05-10T18:43:55.800Z,16.86
2023-05-10T18:47:14.095Z,16.87
2023-05-10T18:50:23.221Z,16.89
2023-05-10T18:53:39.265Z,16.82
2023-05-10T18:56:42.659Z,16.74
2023-05-10T18:59:59.214Z,16.70
2023-05-10T19:03:09.201Z,16.64
2023-05-10T19:06:26.666Z,16.61
2023-05-10T19:09:42.287Z,16.55
2023-05-10T19:12:53.029Z,16.55
2023-05-10T19:16:23.496Z,16.51
2023-05-10T19:19:37.601Z,16.51
2023-05-10T19:23:09.132Z,16.49
2023-05-10T19:26:13.025Z,16.57
2023-05-10T19:29:29.735Z,16.53
2023-05-10T19:32:45.247Z,16.54
2023-05-10T19:36:01.910Z,16.52
2023-05-10T19:39:19.329Z,16.53
2023-05-10T19:42:28.312Z,16.53
2023-05-10T19:45:38.288Z,16.56
2023-05-10T19:48:54.744Z,16.55
2023-05-10T19:51:57.641Z,16.47
2023-05-10T19:55:13.643Z,16.56
2023-05-10T19:58:29.632Z,16.53
2023-05-10T20:01:32.717Z,16.45
2023-05-10T20:04:48.632Z,16.51
2023-05-10T20:08:04.293Z,16.45
2023-05-10T20:11:13.346Z,16.45
2023-05-10T20:14:31.049Z,16.43
2023-05-10T20:17:40.746Z,16.34
2023-05-10T20:21:00.638Z,16.38
2023-05-10T20:24:03.680Z,16.34
2023-05-10T20:27:19.282Z,16.36
2023-05-10T20:30:28.338Z,16.33
2023-05-10T20:33:38.095Z,16.34
2023-05-10T20:36:54.255Z,16.32
2023-05-10T20:40:04.244Z,16.34
2023-05-10T20:43:13.937Z,16.26
2023-05-10T20:46:30.302Z,16.29
2023-05-10T20:49:39.267Z,16.29
2023-05-10T20:52:54.253Z,16.26
2023-05-10T20:55:56.123Z,16.24
2023-05-10T20:59:11.276Z,16.21
2023-05-10T21:02:26.366Z,16.21
2023-05-10T21:05:41.285Z,16.18
2023-05-10T21:09:03.236Z,16.20
2023-05-10T21:12:12.280Z,16.21
2023-05-10T21:15:20.838Z,16.14
2023-05-10T21:18:29.410Z,16.19
2023-05-10T21:21:44.276Z,16.16
2023-05-10T21:24:52.239Z,16.09
2023-05-10T21:28:07.259Z,16.14
2023-05-10T21:31:22.358Z,16.12
2023-05-10T21:34:30.778Z,15.78
2023-05-10T21:37:45.253Z,16.09
2023-05-10T21:40:53.252Z,16.06
2023-05-10T21:44:08.241Z,16.07
2023-05-10T21:47:16.246Z,15.96
2023-05-10T21:50:24.874Z,15.96
2023-05-10T21:53:33.265Z,15.91
2023-05-10T21:56:41.780Z,15.91
2023-05-10T21:59:50.250Z,15.90
2023-05-10T22:02:58.952Z,15.93
2023-05-10T22:06:14.257Z,15.90
2023-05-10T22:09:29.261Z,15.92
2023-05-10T22:12:31.120Z,15.86
2023-05-10T22:15:46.246Z,15.82
2023-05-10T22:18:48.089Z,15.79
2023-05-10T22:22:03.261Z,15.71
2023-05-10T22:25:06.693Z,15.70
2023-05-10T22:28:21.237Z,15.62
2023-05-10T22:31:36.466Z,15.53
2023-05-10T22:34:38.349Z,15.51
2023-05-10T22:37:53.251Z,15.43
2023-05-10T22:41:08.247Z,15.35
2023-05-10T22:44:10.177Z,15.22
2023-05-10T22:47:25.287Z,15.16
2023-05-10T22:50:33.274Z,15.11
2023-05-10T22:53:41.784Z,15.03
2023-05-10T22:56:57.266Z,14.92
2023-05-10T23:00:06.606Z,14.89
2023-05-10T23:03:21.264Z,14.79
2023-05-10T23:06:29.249Z,14.75
2023-05-10T23:09:51.250Z,14.66
2023-05-10T23:13:06.239Z,14.59
2023-05-10T23:16:15.346Z,14.54
2023-05-10T23:19:23.777Z,14.52
2023-05-10T23:22:32.272Z,14.43
2023-05-10T23:25:40.968Z,14.45
2023-05-10T23:28:49.257Z,14.48
2023-05-10T23:31:57.933Z,14.46
2023-05-10T23:35:13.270Z,14.47
2023-05-10T23:38:21.907Z,14.41
2023-05-10T23:41:30.281Z,14.41
2023-05-10T23:44:45.274Z,14.44
2023-05-10T23:47:47.202Z,14.45
2023-05-10T23:51:02.256Z,14.48
2023-05-10T23:54:04.075Z,14.46
2023-05-10T23:57:19.267Z,14.45
